<?xml version="1.0" encoding="utf-8"?>
<gpx xmlns:xsi="http://www.w3.org/2001/XMLSchema-instance" xmlns:xsd="http://www.w3.org/2001/XMLSchema" version="1.1" creator="Shapelink.com" xmlns="http://www.topografix.com/GPX/1/1" xmlns:gpxtpx="http://www.garmin.com/xmlschemas/TrackPointExtension/v1">
  <metadata>
    <name>Övrigt 2.63 km, 2019-04-29</name>
    <desc></desc>
    <author><name>Marian Moron</name></author> 
    <time>2019-04-29T20:24:20Z</time>
  </metadata>
  <trk>
    <name>Övrigt 2.63 km, 2019-04-29</name>
    <trkseg>
      <trkpt lat="51.229928467615" lon="4.457996998724">
        <ele>0</ele>
        <time>2019-04-29T20:24:34Z</time>
      </trkpt>
      <trkpt lat="51.23003366046" lon="4.458514916325">
        <ele>0</ele>
        <time>2019-04-29T20:25:01Z</time>
      </trkpt>
      <trkpt lat="51.230038857238" lon="4.458782215116">
        <ele>0</ele>
        <time>2019-04-29T20:25:21Z</time>
      </trkpt>
      <trkpt lat="51.230490725467" lon="4.458681213221">
        <ele>0</ele>
        <time>2019-04-29T20:25:43Z</time>
      </trkpt>
      <trkpt lat="51.230957429659" lon="4.458596723669">
        <ele>3.8</ele>
        <time>2019-04-29T20:25:58Z</time>
      </trkpt>
      <trkpt lat="51.230990538164" lon="4.458575266005">
        <ele>3.6</ele>
        <time>2019-04-29T20:26:04Z</time>
      </trkpt>
      <trkpt lat="51.23138733731" lon="4.458316935847">
        <ele>1.4</ele>
        <time>2019-04-29T20:26:45Z</time>
      </trkpt>
      <trkpt lat="51.231471910681" lon="4.45828650955">
        <ele>1.8</ele>
        <time>2019-04-29T20:26:57Z</time>
      </trkpt>
      <trkpt lat="51.231925958204" lon="4.458045362287">
        <ele>2.2</ele>
        <time>2019-04-29T20:27:16Z</time>
      </trkpt>
      <trkpt lat="51.232383442306" lon="4.457903624358">
        <ele>7.6</ele>
        <time>2019-04-29T20:27:34Z</time>
      </trkpt>
      <trkpt lat="51.232527108072" lon="4.457795916943">
        <ele>8.6</ele>
        <time>2019-04-29T20:27:46Z</time>
      </trkpt>
      <trkpt lat="51.23247195517" lon="4.457876131726">
        <ele>6.8</ele>
        <time>2019-04-29T20:27:53Z</time>
      </trkpt>
      <trkpt lat="51.232467345125" lon="4.457961962382">
        <ele>5.4</ele>
        <time>2019-04-29T20:27:59Z</time>
      </trkpt>
      <trkpt lat="51.232485450029" lon="4.457977468897">
        <ele>4.6</ele>
        <time>2019-04-29T20:28:01Z</time>
      </trkpt>
      <trkpt lat="51.232502549105" lon="4.457981743666">
        <ele>3.8</ele>
        <time>2019-04-29T20:28:03Z</time>
      </trkpt>
      <trkpt lat="51.232556779998" lon="4.458145274535">
        <ele>0</ele>
        <time>2019-04-29T20:28:16Z</time>
      </trkpt>
      <trkpt lat="51.232587038657" lon="4.458675094434">
        <ele>0</ele>
        <time>2019-04-29T20:28:52Z</time>
      </trkpt>
      <trkpt lat="51.232642275378" lon="4.459056889979">
        <ele>0</ele>
        <time>2019-04-29T20:29:10Z</time>
      </trkpt>
      <trkpt lat="51.232698434108" lon="4.45928060289">
        <ele>0</ele>
        <time>2019-04-29T20:29:24Z</time>
      </trkpt>
      <trkpt lat="51.232727435482" lon="4.459403062449">
        <ele>0</ele>
        <time>2019-04-29T20:29:29Z</time>
      </trkpt>
      <trkpt lat="51.232837238372" lon="4.460105884764">
        <ele>0</ele>
        <time>2019-04-29T20:29:59Z</time>
      </trkpt>
      <trkpt lat="51.232988196391" lon="4.460767971045">
        <ele>0</ele>
        <time>2019-04-29T20:30:27Z</time>
      </trkpt>
      <trkpt lat="51.232996745929" lon="4.460725055717">
        <ele>0</ele>
        <time>2019-04-29T20:30:47Z</time>
      </trkpt>
      <trkpt lat="51.232897085138" lon="4.46017327524">
        <ele>0</ele>
        <time>2019-04-29T20:31:17Z</time>
      </trkpt>
      <trkpt lat="51.232994315178" lon="4.460869140578">
        <ele>0</ele>
        <time>2019-04-29T20:31:42Z</time>
      </trkpt>
      <trkpt lat="51.23310814138" lon="4.461437601036">
        <ele>0</ele>
        <time>2019-04-29T20:32:07Z</time>
      </trkpt>
      <trkpt lat="51.233102944602" lon="4.461658128825">
        <ele>0</ele>
        <time>2019-04-29T20:32:19Z</time>
      </trkpt>
      <trkpt lat="51.233220877935" lon="4.462357766018">
        <ele>0</ele>
        <time>2019-04-29T20:32:46Z</time>
      </trkpt>
      <trkpt lat="51.233297823777" lon="4.462866547348">
        <ele>0</ele>
        <time>2019-04-29T20:33:06Z</time>
      </trkpt>
      <trkpt lat="51.233276114656" lon="4.463003926689">
        <ele>0</ele>
        <time>2019-04-29T20:33:14Z</time>
      </trkpt>
      <trkpt lat="51.233307295324" lon="4.463223783926">
        <ele>0</ele>
        <time>2019-04-29T20:33:31Z</time>
      </trkpt>
      <trkpt lat="51.233422211173" lon="4.463910261536">
        <ele>0</ele>
        <time>2019-04-29T20:34:05Z</time>
      </trkpt>
      <trkpt lat="51.233397149292" lon="4.463990643957">
        <ele>0</ele>
        <time>2019-04-29T20:34:13Z</time>
      </trkpt>
      <trkpt lat="51.233413829273" lon="4.464126263099">
        <ele>3.6</ele>
        <time>2019-04-29T20:34:21Z</time>
      </trkpt>
      <trkpt lat="51.233181315367" lon="4.464650383306">
        <ele>4.8</ele>
        <time>2019-04-29T20:34:59Z</time>
      </trkpt>
      <trkpt lat="51.232901611364" lon="4.464977696501">
        <ele>1.2</ele>
        <time>2019-04-29T20:35:24Z</time>
      </trkpt>
      <trkpt lat="51.232852912525" lon="4.465073501618">
        <ele>0</ele>
        <time>2019-04-29T20:35:34Z</time>
      </trkpt>
      <trkpt lat="51.232806141523" lon="4.465217335022">
        <ele>0</ele>
        <time>2019-04-29T20:35:40Z</time>
      </trkpt>
      <trkpt lat="51.23274688149" lon="4.465420596097">
        <ele>0</ele>
        <time>2019-04-29T20:35:52Z</time>
      </trkpt>
      <trkpt lat="51.232493245196" lon="4.465890820687">
        <ele>5.6</ele>
        <time>2019-04-29T20:36:27Z</time>
      </trkpt>
      <trkpt lat="51.232267017715" lon="4.46649490422">
        <ele>4.2</ele>
        <time>2019-04-29T20:37:09Z</time>
      </trkpt>
      <trkpt lat="51.232038778578" lon="4.467095215898">
        <ele>6.8</ele>
        <time>2019-04-29T20:37:46Z</time>
      </trkpt>
      <trkpt lat="51.231756224729" lon="4.467274672377">
        <ele>3.8</ele>
        <time>2019-04-29T20:38:04Z</time>
      </trkpt>
      <trkpt lat="51.231580623924" lon="4.46726855359">
        <ele>2.6</ele>
        <time>2019-04-29T20:38:19Z</time>
      </trkpt>
      <trkpt lat="51.231447519352" lon="4.467213819783">
        <ele>0.2</ele>
        <time>2019-04-29T20:38:44Z</time>
      </trkpt>
      <trkpt lat="51.231220621319" lon="4.467172580835">
        <ele>0</ele>
        <time>2019-04-29T20:39:33Z</time>
      </trkpt>
      <trkpt lat="51.231176700163" lon="4.467164115116">
        <ele>0</ele>
        <time>2019-04-29T20:39:41Z</time>
      </trkpt>
      <trkpt lat="51.231131186446" lon="4.467180040726">
        <ele>0</ele>
        <time>2019-04-29T20:39:45Z</time>
      </trkpt>
      <trkpt lat="51.230925578439" lon="4.467235780361">
        <ele>0</ele>
        <time>2019-04-29T20:40:19Z</time>
      </trkpt>
      <trkpt lat="51.230822145793" lon="4.467250197229">
        <ele>0</ele>
        <time>2019-04-29T20:40:31Z</time>
      </trkpt>
      <trkpt lat="51.230638163088" lon="4.467235528904">
        <ele>0</ele>
        <time>2019-04-29T20:41:10Z</time>
      </trkpt>
      <trkpt lat="51.23066397934" lon="4.466556008271">
        <ele>0</ele>
        <time>2019-04-29T20:41:49Z</time>
      </trkpt>
      <trkpt lat="51.230716869129" lon="4.466326595668">
        <ele>0</ele>
        <time>2019-04-29T20:42:07Z</time>
      </trkpt>
      <trkpt lat="51.230670433403" lon="4.466097434522">
        <ele>0</ele>
        <time>2019-04-29T20:42:33Z</time>
      </trkpt>
      <trkpt lat="51.230681162235" lon="4.465995091523">
        <ele>0</ele>
        <time>2019-04-29T20:42:38Z</time>
      </trkpt>
      <trkpt lat="51.23068241952" lon="4.465703317584">
        <ele>0</ele>
        <time>2019-04-29T20:43:15Z</time>
      </trkpt>
      <trkpt lat="51.2306924778" lon="4.465629808321">
        <ele>0</ele>
        <time>2019-04-29T20:43:23Z</time>
      </trkpt>
      <trkpt lat="51.230674372896" lon="4.465137958429">
        <ele>0</ele>
        <time>2019-04-29T20:43:57Z</time>
      </trkpt>
      <trkpt lat="51.230618214166" lon="4.464866468688">
        <ele>0</ele>
        <time>2019-04-29T20:44:28Z</time>
      </trkpt>
      <trkpt lat="51.230584686566" lon="4.46470033943">
        <ele>0</ele>
        <time>2019-04-29T20:44:40Z</time>
      </trkpt>
      <trkpt lat="51.230439763515" lon="4.464217206714">
        <ele>0</ele>
        <time>2019-04-29T20:45:11Z</time>
      </trkpt>
      <trkpt lat="51.230440601705" lon="4.464175883947">
        <ele>0</ele>
        <time>2019-04-29T20:45:13Z</time>
      </trkpt>
      <trkpt lat="51.23041336053" lon="4.464048898162">
        <ele>0</ele>
        <time>2019-04-29T20:45:24Z</time>
      </trkpt>
      <trkpt lat="51.23021722407" lon="4.463965582076">
        <ele>0</ele>
        <time>2019-04-29T20:45:57Z</time>
      </trkpt>
      <trkpt lat="51.229811875386" lon="4.464257356015">
        <ele>1.4</ele>
        <time>2019-04-29T20:46:40Z</time>
      </trkpt>
      <trkpt lat="51.229346596117" lon="4.46428208262">
        <ele>20.6</ele>
        <time>2019-04-29T20:47:23Z</time>
      </trkpt>
      <trkpt lat="51.229050882685" lon="4.464370511665">
        <ele>1.6</ele>
        <time>2019-04-29T20:48:04Z</time>
      </trkpt>
      <trkpt lat="51.228612257858" lon="4.464244950803">
        <ele>1.6</ele>
        <time>2019-04-29T20:48:43Z</time>
      </trkpt>
      <trkpt lat="51.228530869609" lon="4.464145709107">
        <ele>0</ele>
        <time>2019-04-29T20:49:01Z</time>
      </trkpt>
      <trkpt lat="51.228450068093" lon="4.463722423157">
        <ele>0</ele>
        <time>2019-04-29T20:49:43Z</time>
      </trkpt>
      <trkpt lat="51.228432885198" lon="4.463452609796">
        <ele>0</ele>
        <time>2019-04-29T20:49:58Z</time>
      </trkpt>
      <trkpt lat="51.228051927843" lon="4.463197129484">
        <ele>0</ele>
        <time>2019-04-29T20:51:08Z</time>
      </trkpt>
      <trkpt lat="51.228018819338" lon="4.463177683476">
        <ele>0</ele>
        <time>2019-04-29T20:51:11Z</time>
      </trkpt>
      <trkpt lat="51.227837099746" lon="4.462893034152">
        <ele>1.4</ele>
        <time>2019-04-29T20:51:33Z</time>
      </trkpt>
      <trkpt lat="51.227908262077" lon="4.46218325486">
        <ele>0</ele>
        <time>2019-04-29T20:52:13Z</time>
      </trkpt>
      <trkpt lat="51.227804158879" lon="4.461604568484">
        <ele>4</ele>
        <time>2019-04-29T20:52:54Z</time>
      </trkpt>
      <trkpt lat="51.227930474112" lon="4.460898644866">
        <ele>0.6</ele>
        <time>2019-04-29T20:53:35Z</time>
      </trkpt>
      <trkpt lat="51.22793734727" lon="4.460838714281">
        <ele>0.8</ele>
        <time>2019-04-29T20:53:41Z</time>
      </trkpt>
      <trkpt lat="51.228006246488" lon="4.460501175168">
        <ele>21.6</ele>
        <time>2019-04-29T20:54:48Z</time>
      </trkpt>
      <trkpt lat="51.228215458712" lon="4.460261788104">
        <ele>27.8</ele>
        <time>2019-04-29T20:55:12Z</time>
      </trkpt>
      <trkpt lat="51.22841343919" lon="4.459632894147">
        <ele>13.8</ele>
        <time>2019-04-29T20:55:48Z</time>
      </trkpt>
      <trkpt lat="51.22846037783" lon="4.459581932195">
        <ele>15.2</ele>
        <time>2019-04-29T20:55:53Z</time>
      </trkpt>
      <trkpt lat="51.228513854352" lon="4.459448408528">
        <ele>10</ele>
        <time>2019-04-29T20:56:03Z</time>
      </trkpt>
      <trkpt lat="51.22853162398" lon="4.458727229852">
        <ele>3.6</ele>
        <time>2019-04-29T20:56:37Z</time>
      </trkpt>
      <trkpt lat="51.228566325046" lon="4.458398324096">
        <ele>1.6</ele>
        <time>2019-04-29T20:56:52Z</time>
      </trkpt>
      <trkpt lat="51.228473537413" lon="4.457957771432">
        <ele>0</ele>
        <time>2019-04-29T20:57:15Z</time>
      </trkpt>
      <trkpt lat="51.228504215167" lon="4.457283531396">
        <ele>0</ele>
        <time>2019-04-29T20:57:54Z</time>
      </trkpt>
      <trkpt lat="51.2287814046" lon="4.457064763806">
        <ele>2</ele>
        <time>2019-04-29T20:58:31Z</time>
      </trkpt>
      <trkpt lat="51.229199912867" lon="4.45675765099">
        <ele>18.4</ele>
        <time>2019-04-29T20:59:12Z</time>
      </trkpt>
      <trkpt lat="51.229271075198" lon="4.456706437581">
        <ele>21.4</ele>
        <time>2019-04-29T20:59:19Z</time>
      </trkpt>
      <trkpt lat="51.229631161622" lon="4.456723620476">
        <ele>12.8</ele>
        <time>2019-04-29T20:59:42Z</time>
      </trkpt>
      <trkpt lat="51.229816736888" lon="4.457394507752">
        <ele>2.8</ele>
        <time>2019-04-29T21:00:12Z</time>
      </trkpt>
      <trkpt lat="51.229856299456" lon="4.457487965937">
        <ele>0.6</ele>
        <time>2019-04-29T21:00:18Z</time>
      </trkpt>
      <trkpt lat="51.229874152903" lon="4.457627608391">
        <ele>0</ele>
        <time>2019-04-29T21:00:28Z</time>
      </trkpt>
      <trkpt lat="51.22972436835" lon="4.457992891593">
        <ele>0</ele>
        <time>2019-04-29T21:00:55Z</time>
      </trkpt>
    </trkseg>
  </trk>
</gpx>